createdAt,value
2022-12-31T00:01:51.645Z,1.70
2022-12-31T00:04:18.712Z,1.25
2022-12-31T00:06:47.149Z,1.77
2022-12-31T00:09:14.013Z,0.50
2022-12-31T00:11:40.996Z,0.70
2022-12-31T00:14:07.928Z,0.60
2022-12-31T00:16:38.158Z,1.00
2022-12-31T00:19:06.952Z,1.60
2022-12-31T00:21:35.032Z,0.63
2022-12-31T00:24:03.312Z,0.85
2022-12-31T00:26:31.990Z,0.80
2022-12-31T00:29:00.545Z,0.50
2022-12-31T00:31:30.843Z,1.30
2022-12-31T00:33:58.846Z,0.50
2022-12-31T00:36:31.369Z,0.65
2022-12-31T00:38:59.684Z,0.73
2022-12-31T00:41:27.886Z,0.50
2022-12-31T00:43:55.344Z,0.60
2022-12-31T00:46:22.519Z,0.50
2022-12-31T00:48:49.545Z,0.40
2022-12-31T00:51:20.435Z,0.40
2022-12-31T00:53:47.750Z,0.30
2022-12-31T00:56:18.264Z,0.90
2022-12-31T00:58:46.070Z,0.30
2022-12-31T01:01:18.030Z,0.65
2022-12-31T01:03:46.221Z,0.47
2022-12-31T01:06:13.117Z,0.70
2022-12-31T01:08:40.134Z,0.40
2022-12-31T01:11:19.463Z,0.55
2022-12-31T01:13:52.394Z,0.40
2022-12-31T01:16:23.062Z,0.22
2022-12-31T01:18:50.837Z,0.40
2022-12-31T01:21:18.920Z,0.30
2022-12-31T01:23:45.833Z,0.30
2022-12-31T01:26:15.153Z,0.50
2022-12-31T01:28:42.456Z,0.50
2022-12-31T01:31:12.987Z,1.27
2022-12-31T01:33:41.821Z,0.60
2022-12-31T01:36:12.827Z,0.40
2022-12-31T01:38:40.067Z,0.52
2022-12-31T01:41:07.226Z,1.67
2022-12-31T01:43:56.356Z,0.50
2022-12-31T01:46:49.192Z,0.50
2022-12-31T01:49:34.103Z,1.17
2022-12-31T01:52:03.770Z,0.40
2022-12-31T01:54:35.586Z,0.35
2022-12-31T01:57:03.722Z,0.52
2022-12-31T01:59:31.667Z,0.50
2022-12-31T02:02:00.205Z,0.40
2022-12-31T02:04:28.797Z,0.90
2022-12-31T02:07:01.877Z,0.50
2022-12-31T02:09:29.466Z,0.50
2022-12-31T02:11:56.279Z,0.40
2022-12-31T02:14:28.231Z,0.68
2022-12-31T02:17:05.974Z,0.68
2022-12-31T02:19:38.548Z,0.73
2022-12-31T02:22:13.438Z,2.53
2022-12-31T02:24:58.920Z,1.20
2022-12-31T02:27:46.667Z,0.73
2022-12-31T02:30:17.074Z,0.70
2022-12-31T02:32:52.794Z,0.80
2022-12-31T02:35:37.864Z,1.55
2022-12-31T02:38:18.370Z,0.50
2022-12-31T02:40:47.133Z,0.93
2022-12-31T02:43:14.444Z,0.98
2022-12-31T02:45:47.713Z,0.50
2022-12-31T02:48:35.275Z,1.40
2022-12-31T02:51:45.803Z,0.60
2022-12-31T02:54:26.405Z,0.70
2022-12-31T02:57:08.396Z,0.70
2022-12-31T03:00:05.293Z,0.95
2022-12-31T03:02:35.397Z,0.60
2022-12-31T03:05:03.553Z,0.47
2022-12-31T03:07:32.810Z,0.88
2022-12-31T03:10:01.048Z,0.60
2022-12-31T03:12:47.354Z,1.10
2022-12-31T03:15:23.380Z,1.48
2022-12-31T03:17:50.156Z,0.85
2022-12-31T03:20:35.941Z,0.50
2022-12-31T03:23:06.299Z,0.60
2022-12-31T03:25:33.699Z,0.80
2022-12-31T03:28:02.487Z,0.50
2022-12-31T03:30:30.535Z,0.68
2022-12-31T03:32:57.674Z,1.52
2022-12-31T03:35:26.102Z,2.10
2022-12-31T03:37:53.568Z,1.02
2022-12-31T03:40:22.107Z,1.35
2022-12-31T03:42:49.063Z,1.10
2022-12-31T03:45:16.659Z,1.08
2022-12-31T03:47:44.007Z,2.50
2022-12-31T03:50:13.468Z,0.90
2022-12-31T03:52:40.433Z,1.73
2022-12-31T03:55:08.702Z,0.70
2022-12-31T03:57:35.833Z,1.42
2022-12-31T04:00:03.999Z,1.58
2022-12-31T04:02:31.605Z,0.50
2022-12-31T04:04:58.619Z,2.72
2022-12-31T04:07:25.496Z,2.15
2022-12-31T04:09:52.630Z,0.73
2022-12-31T04:12:19.441Z,1.30
2022-12-31T04:14:46.332Z,0.95
2022-12-31T04:17:13.210Z,1.13
2022-12-31T04:19:40.311Z,0.98
2022-12-31T04:22:07.203Z,0.68
2022-12-31T04:24:34.279Z,0.50
2022-12-31T04:27:07.338Z,1.38
2022-12-31T04:29:35.419Z,0.60
2022-12-31T04:32:02.826Z,0.43
2022-12-31T04:34:30.001Z,2.13
2022-12-31T04:36:56.955Z,0.68
2022-12-31T04:39:24.465Z,0.77
2022-12-31T04:41:51.545Z,0.63
2022-12-31T04:44:19.185Z,0.80
2022-12-31T04:46:46.294Z,0.98
2022-12-31T04:49:13.181Z,0.50
2022-12-31T04:51:40.266Z,0.60
2022-12-31T04:54:07.119Z,1.02
2022-12-31T04:56:36.753Z,0.85
2022-12-31T04:59:04.988Z,0.43
2022-12-31T05:01:33.134Z,1.02
2022-12-31T05:04:00.426Z,0.70
2022-12-31T05:06:27.336Z,1.42
2022-12-31T05:08:54.261Z,0.93
2022-12-31T05:11:21.497Z,0.75
2022-12-31T05:13:48.610Z,1.08
2022-12-31T05:16:15.556Z,0.65
2022-12-31T05:18:42.498Z,0.70
2022-12-31T05:21:11.466Z,2.47
2022-12-31T05:23:38.283Z,1.27
2022-12-31T05:26:05.273Z,0.60
2022-12-31T05:28:32.712Z,1.85
2022-12-31T05:31:00.601Z,1.42
2022-12-31T05:33:27.499Z,1.50
2022-12-31T05:35:54.872Z,1.05
2022-12-31T05:38:21.794Z,1.40
2022-12-31T05:40:48.669Z,0.80
2022-12-31T05:43:15.618Z,1.15
2022-12-31T05:45:42.503Z,2.15
2022-12-31T05:48:09.562Z,0.60
2022-12-31T05:50:36.419Z,0.60
2022-12-31T05:53:04.208Z,0.40
2022-12-31T05:55:31.138Z,0.55
2022-12-31T05:57:58.247Z,0.75
2022-12-31T06:00:25.039Z,1.52
2022-12-31T06:02:51.927Z,0.43
2022-12-31T06:05:24.262Z,0.60
2022-12-31T06:07:53.100Z,1.88
2022-12-31T06:10:19.964Z,0.80
2022-12-31T06:12:46.961Z,0.50
2022-12-31T06:15:13.787Z,0.63
2022-12-31T06:17:40.615Z,0.50
2022-12-31T06:20:12.770Z,0.50
2022-12-31T06:22:40.310Z,0.75
2022-12-31T06:25:07.564Z,1.33
2022-12-31T06:27:34.432Z,0.60
2022-12-31T06:30:01.254Z,1.40
2022-12-31T06:32:28.121Z,3.58
2022-12-31T06:34:54.926Z,0.80
2022-12-31T06:37:21.836Z,0.68
2022-12-31T06:39:48.978Z,0.60
2022-12-31T06:42:15.829Z,0.73
2022-12-31T06:44:42.671Z,0.73
2022-12-31T06:47:09.524Z,0.40
2022-12-31T06:49:36.361Z,0.40
2022-12-31T06:52:03.306Z,1.67
2022-12-31T06:54:30.179Z,1.00
2022-12-31T06:56:57.357Z,0.95
2022-12-31T06:59:29.236Z,2.15
2022-12-31T07:02:11.424Z,0.50
2022-12-31T07:04:56.852Z,0.50
2022-12-31T07:07:34.688Z,1.55
2022-12-31T07:10:36.732Z,0.77
2022-12-31T07:13:12.820Z,1.83
2022-12-31T07:15:56.753Z,0.50
2022-12-31T07:18:46.231Z,0.80
2022-12-31T07:21:15.943Z,1.05
2022-12-31T07:23:43.362Z,0.93
2022-12-31T07:26:32.338Z,2.30
2022-12-31T07:29:28.269Z,1.15
2022-12-31T07:32:25.585Z,1.08
2022-12-31T07:35:20.055Z,1.90
2022-12-31T07:38:04.997Z,1.27
2022-12-31T07:40:46.065Z,0.77
2022-12-31T07:43:35.034Z,0.55
2022-12-31T07:46:17.594Z,0.80
2022-12-31T07:48:44.708Z,0.45
2022-12-31T07:51:12.288Z,0.80
2022-12-31T07:53:39.733Z,0.90
2022-12-31T07:56:09.143Z,0.85
2022-12-31T07:59:13.364Z,0.65
2022-12-31T08:01:50.135Z,1.20
2022-12-31T08:04:31.573Z,0.50
2022-12-31T08:07:22.215Z,0.73
2022-12-31T08:10:18.011Z,0.50
2022-12-31T08:12:49.542Z,0.85
2022-12-31T08:15:18.647Z,0.95
2022-12-31T08:17:46.058Z,1.13
2022-12-31T08:20:15.903Z,1.05
2022-12-31T08:23:19.427Z,1.45
2022-12-31T08:26:08.090Z,0.80
2022-12-31T08:28:50.307Z,1.85
2022-12-31T08:31:21.541Z,2.40
2022-12-31T08:34:23.653Z,2.28
2022-12-31T08:37:07.133Z,2.88
2022-12-31T08:39:56.899Z,0.68
2022-12-31T08:42:50.475Z,1.23
2022-12-31T08:45:24.554Z,0.98
2022-12-31T08:48:19.953Z,1.20
2022-12-31T08:50:47.025Z,1.23
2022-12-31T08:53:14.215Z,1.02
2022-12-31T08:55:43.590Z,1.73
2022-12-31T08:58:43.554Z,0.70
2022-12-31T09:01:13.779Z,0.85
2022-12-31T09:03:52.551Z,0.85
2022-12-31T09:06:25.978Z,0.70
2022-12-31T09:09:31.914Z,1.52
2022-12-31T09:12:16.224Z,0.77
2022-12-31T09:14:57.171Z,0.85
2022-12-31T09:17:41.764Z,2.72
2022-12-31T09:20:21.373Z,1.45
2022-12-31T09:22:48.914Z,0.85
2022-12-31T09:25:19.193Z,1.55
2022-12-31T09:28:10.247Z,1.50
2022-12-31T09:30:50.723Z,0.80
2022-12-31T09:33:42.884Z,1.63
2022-12-31T09:36:16.717Z,4.15
2022-12-31T09:39:14.003Z,2.97
2022-12-31T09:42:02.864Z,1.65
2022-12-31T09:45:02.094Z,0.80
2022-12-31T09:48:03.480Z,1.00
2022-12-31T09:50:53.785Z,0.70
2022-12-31T09:53:42.031Z,1.63
2022-12-31T09:56:13.030Z,1.77
2022-12-31T09:58:46.326Z,1.23
2022-12-31T10:01:28.233Z,2.42
2022-12-31T10:04:16.569Z,1.58
2022-12-31T10:07:18.726Z,1.27
2022-12-31T10:10:12.081Z,2.35
2022-12-31T10:13:00.444Z,1.40
2022-12-31T10:15:42.110Z,2.67
2022-12-31T10:18:39.963Z,1.13
2022-12-31T10:21:37.006Z,0.93
2022-12-31T10:24:22.118Z,0.70
2022-12-31T10:26:53.514Z,0.80
2022-12-31T10:29:26.294Z,0.70
2022-12-31T10:32:04.885Z,1.63
2022-12-31T10:34:32.037Z,1.38
2022-12-31T10:37:10.572Z,3.33
2022-12-31T10:40:04.749Z,1.00
2022-12-31T10:42:52.970Z,1.80
2022-12-31T10:45:37.613Z,1.13
2022-12-31T10:50:56.099Z,1.38
2022-12-31T10:53:33.473Z,1.25
2022-12-31T10:56:22.058Z,0.65
2022-12-31T10:59:22.428Z,0.93
2022-12-31T11:02:15.860Z,0.80
2022-12-31T11:05:01.038Z,1.67
2022-12-31T11:07:59.287Z,1.60
2022-12-31T11:10:44.610Z,1.45
2022-12-31T11:13:32.396Z,1.38
2022-12-31T11:16:08.916Z,0.82
2022-12-31T11:18:35.759Z,0.60
2022-12-31T11:21:27.744Z,0.68
2022-12-31T11:24:26.203Z,1.50
2022-12-31T11:27:05.323Z,1.52
2022-12-31T11:29:59.830Z,1.05
2022-12-31T11:32:57.271Z,1.05
2022-12-31T11:36:09.088Z,0.82
2022-12-31T11:38:58.177Z,1.45
2022-12-31T11:41:49.943Z,0.98
2022-12-31T11:44:24.015Z,1.38
2022-12-31T11:46:53.989Z,1.35
2022-12-31T11:49:43.326Z,1.90
2022-12-31T11:52:57.133Z,1.50
2022-12-31T11:55:44.431Z,1.42
2022-12-31T11:58:17.648Z,1.90
2022-12-31T12:01:10.366Z,1.58
2022-12-31T12:03:43.210Z,1.05
2022-12-31T12:06:15.441Z,1.02
2022-12-31T12:08:44.278Z,1.25
2022-12-31T12:11:20.593Z,0.60
2022-12-31T12:13:48.022Z,0.75
2022-12-31T12:16:15.287Z,1.02
2022-12-31T12:19:01.263Z,0.80
2022-12-31T12:21:29.417Z,2.55
2022-12-31T12:23:58.039Z,0.90
2022-12-31T12:26:39.858Z,1.42
2022-12-31T12:29:30.517Z,0.70
2022-12-31T12:32:04.561Z,1.92
2022-12-31T12:34:34.529Z,1.85
2022-12-31T12:37:01.810Z,0.80
2022-12-31T12:39:30.989Z,0.65
2022-12-31T12:42:14.916Z,0.85
2022-12-31T12:44:44.665Z,0.77
2022-12-31T12:47:17.735Z,1.52
2022-12-31T12:49:46.847Z,0.80
2022-12-31T12:52:44.789Z,4.82
2022-12-31T12:55:26.206Z,1.60
2022-12-31T12:58:02.185Z,0.90
2022-12-31T13:00:47.104Z,0.85
2022-12-31T13:03:26.481Z,2.63
2022-12-31T13:06:06.442Z,0.43
2022-12-31T13:08:45.569Z,0.70
2022-12-31T13:11:30.412Z,1.23
2022-12-31T13:17:23.021Z,0.60
2022-12-31T13:20:05.297Z,0.60
2022-12-31T13:22:43.733Z,0.60
2022-12-31T13:25:37.827Z,0.68
2022-12-31T13:28:08.936Z,2.70
2022-12-31T13:30:42.717Z,0.98
2022-12-31T13:33:19.272Z,1.67
2022-12-31T13:35:57.811Z,0.93
2022-12-31T13:38:46.094Z,0.70
2022-12-31T13:41:28.272Z,2.03
2022-12-31T13:44:19.412Z,0.90
2022-12-31T13:47:10.775Z,0.77
2022-12-31T13:49:45.587Z,1.27
2022-12-31T13:52:41.155Z,0.70
2022-12-31T13:55:18.396Z,2.03
2022-12-31T13:57:53.120Z,1.15
2022-12-31T14:00:35.945Z,1.15
2022-12-31T14:03:30.275Z,2.28
2022-12-31T14:06:19.139Z,0.60
2022-12-31T14:08:46.218Z,1.75
2022-12-31T14:11:12.982Z,0.90
2022-12-31T14:13:44.003Z,1.05
2022-12-31T14:16:32.411Z,0.70
2022-12-31T14:19:31.126Z,0.95
2022-12-31T14:22:05.485Z,1.33
2022-12-31T14:24:46.861Z,0.70
2022-12-31T14:27:37.623Z,0.60
2022-12-31T14:30:20.687Z,0.93
2022-12-31T14:33:18.160Z,2.08
2022-12-31T14:35:51.289Z,0.50
2022-12-31T14:38:51.596Z,0.77
2022-12-31T14:41:48.690Z,1.45
2022-12-31T14:44:32.851Z,0.88
2022-12-31T14:47:36.901Z,0.90
2022-12-31T14:50:12.645Z,0.60
2022-12-31T14:53:12.156Z,0.95
2022-12-31T14:55:43.554Z,0.80
2022-12-31T14:58:35.977Z,1.33
2022-12-31T15:01:19.831Z,0.55
2022-12-31T15:03:46.883Z,0.67
2022-12-31T15:06:22.837Z,0.80
2022-12-31T15:09:27.453Z,0.73
2022-12-31T15:12:06.449Z,2.07
2022-12-31T15:14:37.805Z,0.60
2022-12-31T15:17:45.042Z,0.60
2022-12-31T15:20:23.555Z,0.60
2022-12-31T15:22:51.795Z,3.15
2022-12-31T15:25:40.314Z,0.45
2022-12-31T15:28:26.337Z,0.82
2022-12-31T15:30:56.559Z,0.60
2022-12-31T15:34:05.757Z,0.70
2022-12-31T15:36:38.997Z,1.00
2022-12-31T15:39:07.644Z,0.50
2022-12-31T15:41:46.016Z,1.25
2022-12-31T15:44:42.199Z,0.75
2022-12-31T15:47:21.023Z,2.28
2022-12-31T15:49:48.307Z,0.40
2022-12-31T15:52:25.768Z,0.73
2022-12-31T15:54:56.158Z,0.55
2022-12-31T15:57:41.529Z,0.55
2022-12-31T16:00:17.181Z,1.50
2022-12-31T16:02:45.047Z,0.60
2022-12-31T16:05:21.038Z,0.82
2022-12-31T16:07:48.263Z,0.70
2022-12-31T16:10:25.202Z,1.30
2022-12-31T16:12:53.739Z,1.20
2022-12-31T16:15:24.532Z,0.65
2022-12-31T16:18:02.750Z,0.60
2022-12-31T16:20:33.103Z,0.80
2022-12-31T16:23:03.204Z,1.40
2022-12-31T16:25:33.066Z,2.22
2022-12-31T16:28:02.945Z,1.27
2022-12-31T16:30:32.445Z,0.70
2022-12-31T16:33:02.076Z,1.08
2022-12-31T16:35:31.493Z,0.60
2022-12-31T16:38:17.561Z,0.70
2022-12-31T16:41:06.622Z,0.70
2022-12-31T16:43:38.840Z,0.82
2022-12-31T16:46:30.775Z,0.90
2022-12-31T16:49:08.013Z,2.35
2022-12-31T16:51:37.540Z,0.65
2022-12-31T16:54:04.819Z,3.10
2022-12-31T16:56:36.741Z,0.70
2022-12-31T16:59:35.573Z,1.13
2022-12-31T17:02:09.776Z,1.05
2022-12-31T17:04:40.019Z,2.75
2022-12-31T17:07:30.084Z,0.98
2022-12-31T17:10:09.298Z,2.05
2022-12-31T17:13:17.359Z,0.70
2022-12-31T17:15:39.627Z,0.70
2022-12-31T17:18:07.381Z,1.70
2022-12-31T17:20:34.794Z,0.70
2022-12-31T17:23:05.645Z,0.75
2022-12-31T17:25:34.597Z,1.42
2022-12-31T17:28:05.307Z,1.00
2022-12-31T17:30:35.233Z,0.80
2022-12-31T17:33:09.681Z,1.20
2022-12-31T17:38:22.949Z,1.00
2022-12-31T17:41:05.596Z,1.13
2022-12-31T17:43:37.226Z,1.52
2022-12-31T17:46:16.579Z,1.10
2022-12-31T17:48:46.134Z,1.42
2022-12-31T17:51:13.063Z,1.23
2022-12-31T17:53:39.880Z,1.42
2022-12-31T17:56:16.679Z,1.30
2022-12-31T17:58:45.220Z,1.23
2022-12-31T18:01:14.159Z,2.08
2022-12-31T18:03:41.156Z,1.70
2022-12-31T18:06:16.533Z,1.55
2022-12-31T18:08:43.940Z,1.38
2022-12-31T18:11:16.385Z,1.35
2022-12-31T18:13:43.554Z,1.63
2022-12-31T18:16:10.436Z,3.22
2022-12-31T18:18:40.972Z,1.42
2022-12-31T18:21:15.476Z,1.85
2022-12-31T18:26:18.501Z,2.63
2022-12-31T18:28:45.804Z,1.83
2022-12-31T18:31:31.153Z,2.13
2022-12-31T18:33:59.207Z,1.50
2022-12-31T18:36:27.589Z,1.88
2022-12-31T18:38:54.413Z,2.22
2022-12-31T18:41:24.658Z,2.13
2022-12-31T18:43:51.523Z,1.77
2022-12-31T18:46:21.627Z,2.75
2022-12-31T18:48:49.017Z,1.50
2022-12-31T18:51:25.110Z,2.20
2022-12-31T18:53:56.610Z,1.50
2022-12-31T18:56:25.229Z,3.40
2022-12-31T18:58:52.190Z,2.28
2022-12-31T19:01:31.860Z,2.25
2022-12-31T19:04:13.841Z,1.40
2022-12-31T19:06:41.263Z,1.67
2022-12-31T19:09:23.716Z,1.20
2022-12-31T19:11:55.270Z,2.42
2022-12-31T19:14:24.686Z,0.95
2022-12-31T19:16:53.476Z,1.25
2022-12-31T19:19:21.140Z,1.30
2022-12-31T19:21:48.205Z,1.60
2022-12-31T19:24:21.312Z,1.45
2022-12-31T19:26:48.874Z,2.30
2022-12-31T19:29:22.182Z,1.45
2022-12-31T19:31:49.140Z,1.55
2022-12-31T19:34:16.104Z,1.40
2022-12-31T19:36:44.334Z,1.42
2022-12-31T19:39:18.085Z,1.30
2022-12-31T19:41:46.064Z,1.50
2022-12-31T19:44:17.924Z,1.30
2022-12-31T19:46:46.291Z,2.30
2022-12-31T19:49:14.261Z,1.20
2022-12-31T19:51:42.251Z,1.27
2022-12-31T19:54:10.605Z,3.45
2022-12-31T19:56:39.027Z,1.73
2022-12-31T19:59:07.683Z,1.35
2022-12-31T20:01:34.943Z,1.20
2022-12-31T20:04:02.007Z,1.17
2022-12-31T20:06:28.898Z,1.02
2022-12-31T20:08:55.997Z,0.90
2022-12-31T20:11:24.424Z,1.23
2022-12-31T20:13:53.592Z,3.97
2022-12-31T20:16:23.192Z,14.40
2022-12-31T20:18:50.814Z,6.22
2022-12-31T20:21:20.887Z,2.33
2022-12-31T20:23:49.124Z,1.92
2022-12-31T20:26:16.481Z,1.38
2022-12-31T20:28:43.316Z,1.00
2022-12-31T20:31:12.892Z,1.70
2022-12-31T20:33:40.300Z,3.45
2022-12-31T20:36:10.109Z,1.00
2022-12-31T20:38:37.318Z,1.40
2022-12-31T20:41:06.683Z,2.88
2022-12-31T20:43:35.312Z,1.20
2022-12-31T20:46:14.872Z,1.05
2022-12-31T20:48:43.680Z,1.10
2022-12-31T20:51:11.030Z,0.93
2022-12-31T20:53:38.275Z,1.35
2022-12-31T20:56:09.492Z,1.10
2022-12-31T20:58:38.892Z,1.73
2022-12-31T21:01:08.501Z,1.00
2022-12-31T21:04:04.119Z,1.58
2022-12-31T21:06:25.090Z,1.40
2022-12-31T21:08:52.216Z,1.92
2022-12-31T21:11:37.554Z,1.42
2022-12-31T21:14:04.552Z,3.38
2022-12-31T21:16:32.083Z,3.40
2022-12-31T21:18:59.079Z,2.17
2022-12-31T21:21:26.030Z,2.30
2022-12-31T21:23:53.179Z,4.82
2022-12-31T21:26:20.050Z,2.15
2022-12-31T21:28:46.917Z,1.40
2022-12-31T21:31:15.208Z,1.10
2022-12-31T21:33:48.359Z,2.05
2022-12-31T21:36:15.590Z,1.00
2022-12-31T21:38:42.630Z,0.80
2022-12-31T21:41:33.290Z,0.90
2022-12-31T21:44:01.210Z,1.30
2022-12-31T21:46:28.488Z,1.02
2022-12-31T21:49:00.550Z,1.10
2022-12-31T21:51:28.426Z,1.40
2022-12-31T21:53:55.664Z,1.50
2022-12-31T21:56:22.915Z,1.13
2022-12-31T21:59:16.656Z,1.65
2022-12-31T22:02:02.488Z,1.60
2022-12-31T22:05:02.070Z,2.25
2022-12-31T22:07:16.535Z,1.38
2022-12-31T22:09:43.387Z,1.85
2022-12-31T22:12:10.399Z,1.30
2022-12-31T22:14:37.480Z,1.70
2022-12-31T22:17:04.416Z,1.95
2022-12-31T22:19:31.232Z,1.83
2022-12-31T22:21:58.158Z,4.80
2022-12-31T22:24:25.012Z,1.38
2022-12-31T22:26:54.185Z,2.15
2022-12-31T22:29:21.740Z,2.03
2022-12-31T22:31:48.646Z,1.88
2022-12-31T22:34:18.214Z,2.33
2022-12-31T22:36:45.050Z,2.13
2022-12-31T22:39:44.787Z,1.40
2022-12-31T22:42:03.018Z,1.35
2022-12-31T22:44:29.924Z,1.75
2022-12-31T22:46:57.038Z,1.60
2022-12-31T22:49:23.926Z,1.52
2022-12-31T22:51:56.022Z,2.05
2022-12-31T22:54:25.076Z,1.73
2022-12-31T22:56:52.009Z,1.48
2022-12-31T22:59:18.896Z,1.40
2022-12-31T23:01:46.012Z,2.78
2022-12-31T23:04:13.121Z,1.67
2022-12-31T23:06:45.703Z,15.10
2022-12-31T23:09:32.961Z,380.02
2022-12-31T23:12:00.002Z,251.02
2022-12-31T23:14:45.655Z,160.63
2022-12-31T23:17:37.222Z,261.15
2022-12-31T23:20:25.170Z,449.25
2022-12-31T23:23:10.453Z,606.63
2022-12-31T23:25:37.290Z,302.55
2022-12-31T23:28:05.148Z,295.48
2022-12-31T23:30:32.258Z,352.50
2022-12-31T23:32:59.248Z,198.23
2022-12-31T23:35:26.329Z,174.55
2022-12-31T23:37:53.152Z,117.32
2022-12-31T23:40:21.735Z,102.00
2022-12-31T23:42:50.080Z,76.65
2022-12-31T23:45:17.107Z,801.63
2022-12-31T23:47:44.040Z,760.25
2022-12-31T23:50:11.191Z,429.42
2022-12-31T23:52:38.085Z,282.95
2022-12-31T23:55:05.317Z,179.25
2022-12-31T23:57:32.177Z,150.88
2022-12-31T23:59:59.153Z,65.55
